Here is the Quick Look data you requested

The Data originates at the National Weather Service, and is made available here by the UAlbany Department of Atmospheric and Environmental Sciences

Surface Observations

KNHK 240552Z AUTO 00000KT 10SM 23/19 A2987 RMK AO2 SLP114 T02330194 10250 20233
 58012 $=
KNHK 240652Z AUTO 00000KT 10SM CLR 23/18 A2986 RMK AO2 SLP110 T02280183 $
KNHK 240652Z AUTO 00000KT 10SM CLR 23/18 A2986 RMK AO2 SLP110 T02280183 $=
KNHK 240752Z AUTO 00000KT 10SM CLR 22/19 A2985 RMK AO2 SLP107 T02170189 $
KNHK 240752Z AUTO 00000KT 10SM CLR 22/19 A2985 RMK AO2 SLP107 T02170189 $=
KNHK 240812Z AUTO 00000KT 10SM FEW002 22/19 A2984 RMK AO2 T02220194 $
KNHK 240812Z AUTO 00000KT 10SM FEW002 22/19 A2984 RMK AO2 T02220194 $=
KNHK 240852Z AUTO 00000KT 10SM CLR 21/18 A2984 RMK AO2 SLP105 T02110183 56009 $
KNHK 240852Z AUTO 00000KT 10SM CLR 21/18 A2984 RMK AO2 SLP105 T02110183 56009 $=
KNHK 240952Z 00000KT 10SM SCT025 SCT050 BKN100 BKN200 23/19 A2985 RMK AO2
 SLP110 T02280189 $
KNHK 240952Z 00000KT 10SM SCT025 SCT050 BKN100 BKN200 23/19 A2985 RMK AO2
 SLP110 T02280189 $=
KNHK 241052Z 29003KT 10SM FEW025 SCT050 BKN100 BKN200 23/19 A2986 RMK AO2
 SLP113 T02330194
KNHK 241052Z 29003KT 10SM FEW025 SCT050 BKN100 BKN200 23/19 A2986 RMK AO2
 SLP113 T02330194=
KNHK 241152Z 33005KT 10SM FEW040 SCT060 BKN100 BKN200 23/19 A2987 RMK AO2
 SLP114 T02330194 10233 20211 51009 $
KNHK 241152Z 33005KT 10SM FEW040 SCT060 BKN100 BKN200 23/19 A2987 RMK AO2
 SLP114 T02330194 10233 20211 51009 $=
KNHK 241252Z 29004KT 10SM FEW040 SCT060 BKN100 BKN200 24/20 A2987 RMK AO2
 SLP116 T02440200 $
KNHK 241252Z 29004KT 10SM FEW040 SCT060 BKN100 BKN200 24/20 A2987 RMK AO2
 SLP116 T02440200 $=
KNHK 241352Z 35005KT 10SM FEW040 SCT080 SCT200 28/20 A2987 RMK AO2 SLP115
 T02780200
KNHK 241352Z 35005KT 10SM FEW040 SCT080 SCT200 28/20 A2987 RMK AO2 SLP115
 T02780200=
KNHK 241452Z VRB06KT 10SM FEW030 FEW080 SCT120 SCT200 28/20 A2987 RMK AO2
 SLP116 T02780200 52002
KNHK 241452Z VRB06KT 10SM FEW030 FEW080 SCT120 SCT200 28/20 A2987 RMK AO2
 SLP116 T02780200 52002=
KNHK 241552Z 03007KT 10SM SCT025TCU BKN080 BKN120 BKN200 28/21 A2987 RMK AO2
 SLP114 TCU W MOV E TCU E MOV E T2 SET T02830206
KNHK 241552Z 03007KT 10SM SCT025TCU BKN080 BKN120 BKN200 28/21 A2987 RMK AO2
 SLP114 TCU W MOV E TCU E MOV E T2 SET T02830206=
KNHK 241644Z 11003KT 10SM TS SCT022 BKN030 OVC120 26/20 A2987 RMK AO2 TSB39
 T02610200
KNHK 241644Z 11003KT 10SM TS SCT022 BKN030 OVC120 26/20 A2987 RMK AO2 TSB39
 T02610200=
KNHK 241652Z 08004KT 8SM -TSRA SCT022CB BKN030 BKN120 26/20 A2986 RMK AO2 RAB50
 TSB39 SLP113 OCNL LTGIC W MOV E CB W MOV E T1 SET P0000 T02560200
KNHK 241652Z 08004KT 8SM -TSRA SCT022CB BKN030 BKN120 26/20 A2986 RMK AO2 RAB50
 TSB39 SLP113 OCNL LTGIC W MOV E CB W MOV E T1 SET P0000 T02560200=
KNHK 241710Z 09004KT 2 1/2SM TSRA SCT020CB BKN030 BKN075 OVC130 24/21 A2986 RMK
 AO2 TSB1653 OCNL LTGIC OVD MOV SE CB OVD MOV SE T1 SET P0006 T02440206
KNHK 241710Z 09004KT 2 1/2SM TSRA SCT020CB BKN030 BKN075 OVC130 24/21 A2986 RMK
 AO2 TSB1653 OCNL LTGIC OVD MOV SE CB OVD MOV SE T1 SET P0006 T02440206=
KNHK 241735Z 00000KT 4SM -TSRA SCT020CB BKN030 BKN075 OVC130 24/21 A2986 RMK
 AO2 TSB1653 OCNL LTGIC OVD MOV SE CB OVD MOV SE T1 SET P0014 T02440211=
KNHK 241752Z 08004KT 6SM -TSRA SCT035CB SCT065 BKN085 OVC130 24/21 A2985 RMK
 AO2 TSB1653E40 SLP109 OCNL LTGIC SW MOV SE CB SW MOV SE T2 SET P0014 60014
 T02440211 10289 20239 58007=
KNHK 241805Z 12004KT 6SM HZ FEW039 SCT085 OVC110 24/21 A2986 RMK AO2 RAE1754
 TSE04 P0000 T02440211
KNHK 241805Z 12004KT 6SM HZ FEW039 SCT085 OVC110 24/21 A2986 RMK AO2 RAE1754
 TSE04 P0000 T02440211=
KNHK 241805Z COR 12004KT 6SM BR FEW040 SCT085 BKN110 BKN280 24/21 A2986 RMK AO2
 RAE1754 TSE04 P0000 T02440211=
KNHK 241852Z 00000KT 8SM FEW040 FEW110 BKN280 26/21 A2984 RMK AO2 RAE1754 TSE04
 SLP104 CB DSNT SE-SW T2 SET P0000 T02560206
KNHK 241852Z 00000KT 8SM FEW040 FEW110 BKN280 26/21 A2984 RMK AO2 RAE1754 TSE04
 SLP104 CB DSNT SE-SW T2 SET P0000 T02560206=
KNHK 241952Z 12007KT 10SM FEW040 SCT110 BKN280 26/21 A2984 RMK AO2 SLP103 T2
 SET T02610206
KNHK 241952Z 12007KT 10SM FEW040 SCT110 BKN280 26/21 A2984 RMK AO2 SLP103 T2
 SET T02610206=
KNHK 242052Z 12005KT 10SM FEW045 SCT110 SCT280 27/19 A2983 RMK AO2 SLP103 CB
 DSNT NE T2 SET 60000 T02720194 56007
KNHK 242052Z 12005KT 10SM FEW045 SCT110 SCT280 27/19 A2983 RMK AO2 SLP103 CB
 DSNT NE T2 SET 60000 T02720194 56007=
KNHK 242152Z 00000KT 10SM FEW040 SCT110 SCT280 26/19 A2984 RMK AO2 SLP103
 T02610194
KNHK 242152Z 00000KT 10SM FEW040 SCT110 SCT280 26/19 A2984 RMK AO2 SLP103
 T02610194=
KNHK 242252Z 09005KT 10SM FEW045 FEW110 26/21 A2983 RMK AO2 SLP103 T02560206 $
KNHK 242252Z 09005KT 10SM FEW045 FEW110 26/21 A2983 RMK AO2 SLP103 T02560206 $=
KNHK 242352Z 12005KT 9SM FEW280 24/21 A2983 RMK AO2 SLP100 60000 T02440206
 10272 20244 58003 $
KNHK 242352Z 12005KT 9SM FEW280 24/21 A2983 RMK AO2 SLP100 60000 T02440206
 10272 20244 58003 $=
KNHK 250052Z 17005KT 9SM CLR 24/21 A2983 RMK AO2 SLP103 T02390211 $
KNHK 250052Z 17005KT 9SM CLR 24/21 A2983 RMK AO2 SLP103 T02390211 $=
KNHK 250152Z 17003KT 9SM CLR 23/20 A2986 RMK AO2 SLP112 T02330200 $
KNHK 250152Z 17003KT 9SM CLR 23/20 A2986 RMK AO2 SLP112 T02330200 $=
KNHK 250252Z 18003KT 9SM CLR 22/19 A2987 RMK AO2 SLP115 T02220194 51015 $
KNHK 250252Z 18003KT 9SM CLR 22/19 A2987 RMK AO2 SLP115 T02220194 51015 $=
KNHK 250352Z AUTO 00000KT 7SM CLR 21/19 A2987 RMK AO2 SLP115 T02110189 $
KNHK 250352Z AUTO 00000KT 7SM CLR 21/19 A2987 RMK AO2 SLP115 T02110189 $=
KNHK 250452Z AUTO 26004KT 6SM BR CLR 21/19 A2987 RMK AO2 SLP114 T02110189
 402890206 $
KNHK 250452Z AUTO 26004KT 6SM BR CLR 21/19 A2987 RMK AO2 SLP114 T02110189
 402890206 $=
KNHK 250552Z AUTO 00000KT 7SM CLR 22/19 A2985 RMK AO2 SLP108 T02170194 10244
 20206 58006 $
KNHK 250552Z AUTO 00000KT 7SM CLR 22/19 A2985 RMK AO2 SLP108 T02170194 10244
 20206 58006 $=
KNHK 250652Z AUTO 28003KT 6SM BR CLR 22/19 A2984 RMK AO2 SLP104 T02170194 $
KNHK 250652Z AUTO 28003KT 6SM BR CLR 22/19 A2984 RMK AO2 SLP104 T02170194 $=
KNHK 250752Z AUTO 00000KT 6SM BR CLR 21/18 A2984 RMK AO2 SLP103 T02060183 $
KNHK 250752Z AUTO 00000KT 6SM BR CLR 21/18 A2984 RMK AO2 SLP103 T02060183 $=
KNHK 250814Z AUTO 00000KT 4SM BR SCT002 20/18 A2984 RMK AO2 VIS 1 3/4 RY24
 T02000178 $
KNHK 250814Z AUTO 00000KT 4SM BR SCT002 20/18 A2984 RMK AO2 VIS 1 3/4 RY24
 T02000178 $=
KNHK 250840Z AUTO 00000KT 2SM BR FEW002 20/18 A2984 RMK AO2 VIS 3/4 RY24
 T02000178 $
KNHK 250840Z AUTO 00000KT 2SM BR FEW002 20/18 A2984 RMK AO2 VIS 3/4 RY24
 T02000178 $=
KNHK 250849Z AUTO 00000KT 7SM CLR 18/16 A2984 RMK AO2 VIS 3/4 RY24 $
KNHK 250849Z AUTO 00000KT 7SM CLR 18/16 A2984 RMK AO2 VIS 3/4 RY24 $=
KNHK 250852Z AUTO 23003KT 6SM BR CLR 19/17 A2984 RMK AO2 VIS 1/2 RY24 SLP104
 T01890167 55000 $
KNHK 250849Z AUTO 00000KT 7SM CLR 18/16 A2984 RMK AO2 VIS 3/4 RY24 $=
KNHK 250852Z AUTO 23003KT 6SM BR CLR 19/17 A2984 RMK AO2 VIS 1/2 RY24 SLP104
 T01890167 55000 $=
KNHK 250952Z AUTO 23004KT 4SM BR SCT002 19/17 A2985 RMK AO2 VIS 1/2 RY24 SLP109
 T01890172 $
KNHK 250952Z AUTO 23004KT 4SM BR SCT002 19/17 A2985 RMK AO2 VIS 1/2 RY24 SLP109
 T01890172 $=
KNHK 251052Z AUTO 26003KT 4SM BR CLR 21/19 A2987 RMK AO2 SLP113 T02060189 $
KNHK 251052Z AUTO 26003KT 4SM BR CLR 21/19 A2987 RMK AO2 SLP113 T02060189 $=
KNHK 251114Z 7SM OVC280 22/20 A2987 RMK AO2 T02220200 $
KNHK 251114Z 7SM OVC280 22/20 A2987 RMK AO2 T02220200 $=
KNHK 251152Z 27004KT 7SM OVC280 24/19 A2988 RMK AO2 SLP118 70014 T02390194
 10239 20183 52014 $
KNHK 251152Z 27004KT 7SM OVC280 24/19 A2988 RMK AO2 SLP118 70014 T02390194
 10239 20183 52014 $=